sensor_id;sensor_type;location;lat;lon;timestamp;P1;durP1;ratioP1;P2;durP2;ratioP2
77168;SDS011;66281;45.114;20.730;2024-02-26T00:08:18;12.43;;;9.05;;
77168;SDS011;66281;45.114;20.730;2024-02-26T00:18:20;13.50;;;9.93;;
77168;SDS011;66281;45.114;20.730;2024-02-26T00:28:21;12.40;;;9.53;;
77168;SDS011;66281;45.114;20.730;2024-02-26T00:38:22;14.20;;;9.68;;
77168;SDS011;66281;45.114;20.730;2024-02-26T00:48:24;13.90;;;9.53;;
77168;SDS011;66281;45.114;20.730;2024-02-26T00:58:26;13.40;;;9.57;;
77168;SDS011;66281;45.114;20.730;2024-02-26T01:08:28;16.35;;;9.82;;
77168;SDS011;66281;45.114;20.730;2024-02-26T01:18:29;14.13;;;9.87;;
77168;SDS011;66281;45.114;20.730;2024-02-26T01:28:31;12.63;;;9.63;;
77168;SDS011;66281;45.114;20.730;2024-02-26T01:38:32;13.93;;;10.37;;
77168;SDS011;66281;45.114;20.730;2024-02-26T01:48:33;15.00;;;10.00;;
77168;SDS011;66281;45.114;20.730;2024-02-26T01:58:35;15.33;;;10.33;;
77168;SDS011;66281;45.114;20.730;2024-02-26T02:08:37;16.27;;;11.03;;
77168;SDS011;66281;45.114;20.730;2024-02-26T02:18:39;14.10;;;9.65;;
77168;SDS011;66281;45.114;20.730;2024-02-26T02:28:40;15.23;;;10.30;;
77168;SDS011;66281;45.114;20.730;2024-02-26T02:38:48;18.17;;;11.73;;
77168;SDS011;66281;45.114;20.730;2024-02-26T02:48:51;20.65;;;13.77;;
77168;SDS011;66281;45.114;20.730;2024-02-26T02:58:52;24.57;;;14.87;;
77168;SDS011;66281;45.114;20.730;2024-02-26T03:08:54;20.40;;;11.87;;
77168;SDS011;66281;45.114;20.730;2024-02-26T03:18:55;25.70;;;15.03;;
77168;SDS011;66281;45.114;20.730;2024-02-26T03:28:57;21.40;;;13.32;;
77168;SDS011;66281;45.114;20.730;2024-02-26T03:38:58;22.00;;;13.27;;
77168;SDS011;66281;45.114;20.730;2024-02-26T03:49:00;22.33;;;13.27;;
77168;SDS011;66281;45.114;20.730;2024-02-26T03:59:01;17.13;;;11.60;;
77168;SDS011;66281;45.114;20.730;2024-02-26T04:09:03;17.47;;;11.43;;
77168;SDS011;66281;45.114;20.730;2024-02-26T04:19:04;18.20;;;12.57;;
77168;SDS011;66281;45.114;20.730;2024-02-26T04:29:06;17.58;;;11.18;;
77168;SDS011;66281;45.114;20.730;2024-02-26T04:39:07;17.60;;;11.33;;
77168;SDS011;66281;45.114;20.730;2024-02-26T04:49:09;18.33;;;10.90;;
77168;SDS011;66281;45.114;20.730;2024-02-26T04:59:10;18.27;;;11.07;;
77168;SDS011;66281;45.114;20.730;2024-02-26T05:09:11;17.75;;;10.65;;
77168;SDS011;66281;45.114;20.730;2024-02-26T05:19:13;15.40;;;9.90;;
77168;SDS011;66281;45.114;20.730;2024-02-26T05:29:15;16.90;;;9.97;;
77168;SDS011;66281;45.114;20.730;2024-02-26T05:39:16;20.33;;;9.80;;
77168;SDS011;66281;45.114;20.730;2024-02-26T05:49:18;22.83;;;15.10;;
77168;SDS011;66281;45.114;20.730;2024-02-26T05:59:19;22.63;;;15.80;;
77168;SDS011;66281;45.114;20.730;2024-02-26T06:09:22;24.75;;;16.50;;
77168;SDS011;66281;45.114;20.730;2024-02-26T06:19:23;17.33;;;10.03;;
77168;SDS011;66281;45.114;20.730;2024-02-26T06:29:25;16.20;;;10.40;;
77168;SDS011;66281;45.114;20.730;2024-02-26T06:39:26;15.17;;;9.57;;
77168;SDS011;66281;45.114;20.730;2024-02-26T06:49:28;16.40;;;11.02;;
77168;SDS011;66281;45.114;20.730;2024-02-26T06:59:30;18.13;;;10.87;;
77168;SDS011;66281;45.114;20.730;2024-02-26T07:09:31;15.70;;;8.47;;
77168;SDS011;66281;45.114;20.730;2024-02-26T07:19:32;20.10;;;10.48;;
77168;SDS011;66281;45.114;20.730;2024-02-26T07:29:33;17.70;;;11.03;;
77168;SDS011;66281;45.114;20.730;2024-02-26T07:39:35;17.60;;;9.17;;
77168;SDS011;66281;45.114;20.730;2024-02-26T07:49:36;20.35;;;11.30;;
77168;SDS011;66281;45.114;20.730;2024-02-26T07:59:37;12.03;;;8.63;;
77168;SDS011;66281;45.114;20.730;2024-02-26T08:09:41;34.47;;;15.93;;
77168;SDS011;66281;45.114;20.730;2024-02-26T08:19:43;16.37;;;8.37;;
77168;SDS011;66281;45.114;20.730;2024-02-26T08:29:45;11.88;;;7.45;;
77168;SDS011;66281;45.114;20.730;2024-02-26T08:39:46;17.10;;;10.37;;
77168;SDS011;66281;45.114;20.730;2024-02-26T08:49:48;13.97;;;8.67;;
77168;SDS011;66281;45.114;20.730;2024-02-26T08:59:49;12.20;;;8.02;;
77168;SDS011;66281;45.114;20.730;2024-02-26T09:09:51;12.10;;;7.43;;
77168;SDS011;66281;45.114;20.730;2024-02-26T09:19:52;10.97;;;6.80;;
77168;SDS011;66281;45.114;20.730;2024-02-26T09:29:54;10.98;;;7.38;;
77168;SDS011;66281;45.114;20.730;2024-02-26T09:39:55;11.50;;;6.10;;
77168;SDS011;66281;45.114;20.730;2024-02-26T09:49:57;11.87;;;5.60;;
77168;SDS011;66281;45.114;20.730;2024-02-26T10:00:00;9.00;;;6.27;;
77168;SDS011;66281;45.114;20.730;2024-02-26T10:10:08;10.03;;;5.80;;
77168;SDS011;66281;45.114;20.730;2024-02-26T10:20:11;7.67;;;5.80;;
77168;SDS011;66281;45.114;20.730;2024-02-26T10:30:22;8.23;;;6.00;;
77168;SDS011;66281;45.114;20.730;2024-02-26T10:40:23;7.17;;;5.13;;
77168;SDS011;66281;45.114;20.730;2024-02-26T10:50:25;7.93;;;5.03;;
77168;SDS011;66281;45.114;20.730;2024-02-26T11:00:26;7.70;;;5.23;;
77168;SDS011;66281;45.114;20.730;2024-02-26T11:10:30;7.97;;;4.82;;
77168;SDS011;66281;45.114;20.730;2024-02-26T11:20:34;8.07;;;5.27;;
77168;SDS011;66281;45.114;20.730;2024-02-26T11:30:36;8.90;;;5.10;;
77168;SDS011;66281;45.114;20.730;2024-02-26T11:40:40;6.88;;;5.07;;
77168;SDS011;66281;45.114;20.730;2024-02-26T11:50:42;5.57;;;3.83;;
77168;SDS011;66281;45.114;20.730;2024-02-26T12:00:46;6.00;;;3.80;;
77168;SDS011;66281;45.114;20.730;2024-02-26T12:10:47;6.60;;;4.25;;
77168;SDS011;66281;45.114;20.730;2024-02-26T12:20:59;4.40;;;2.40;;
77168;SDS011;66281;45.114;20.730;2024-02-26T12:31:02;5.37;;;3.60;;
77168;SDS011;66281;45.114;20.730;2024-02-26T12:41:03;9.02;;;5.05;;
77168;SDS011;66281;45.114;20.730;2024-02-26T12:51:05;6.87;;;2.90;;
77168;SDS011;66281;45.114;20.730;2024-02-26T13:01:07;8.63;;;4.70;;
77168;SDS011;66281;45.114;20.730;2024-02-26T13:11:09;9.43;;;4.63;;
77168;SDS011;66281;45.114;20.730;2024-02-26T13:21:11;6.30;;;4.20;;
77168;SDS011;66281;45.114;20.730;2024-02-26T13:31:14;6.63;;;3.50;;
77168;SDS011;66281;45.114;20.730;2024-02-26T13:41:15;8.77;;;4.93;;
77168;SDS011;66281;45.114;20.730;2024-02-26T13:51:17;6.70;;;4.80;;
77168;SDS011;66281;45.114;20.730;2024-02-26T14:01:18;8.37;;;7.07;;
77168;SDS011;66281;45.114;20.730;2024-02-26T14:11:20;13.03;;;8.30;;
77168;SDS011;66281;45.114;20.730;2024-02-26T14:21:21;11.70;;;6.93;;
77168;SDS011;66281;45.114;20.730;2024-02-26T14:31:24;10.83;;;6.20;;
77168;SDS011;66281;45.114;20.730;2024-02-26T14:41:26;12.00;;;6.17;;
77168;SDS011;66281;45.114;20.730;2024-02-26T14:51:27;9.15;;;6.10;;
77168;SDS011;66281;45.114;20.730;2024-02-26T15:01:29;9.03;;;4.70;;
77168;SDS011;66281;45.114;20.730;2024-02-26T15:11:32;9.60;;;5.67;;
77168;SDS011;66281;45.114;20.730;2024-02-26T15:21:33;6.68;;;5.07;;
77168;SDS011;66281;45.114;20.730;2024-02-26T15:31:35;9.23;;;6.37;;
77168;SDS011;66281;45.114;20.730;2024-02-26T15:41:38;9.00;;;6.00;;
77168;SDS011;66281;45.114;20.730;2024-02-26T15:51:40;10.63;;;6.40;;
77168;SDS011;66281;45.114;20.730;2024-02-26T16:01:41;9.00;;;6.30;;
77168;SDS011;66281;45.114;20.730;2024-02-26T16:11:43;11.20;;;6.43;;
77168;SDS011;66281;45.114;20.730;2024-02-26T16:21:44;10.90;;;6.37;;
77168;SDS011;66281;45.114;20.730;2024-02-26T16:31:46;13.57;;;8.90;;
77168;SDS011;66281;45.114;20.730;2024-02-26T16:41:48;14.97;;;10.17;;
77168;SDS011;66281;45.114;20.730;2024-02-26T16:51:50;14.20;;;9.23;;
77168;SDS011;66281;45.114;20.730;2024-02-26T17:01:51;20.17;;;13.55;;
77168;SDS011;66281;45.114;20.730;2024-02-26T17:11:53;24.00;;;16.37;;
77168;SDS011;66281;45.114;20.730;2024-02-26T17:21:55;30.77;;;18.60;;
77168;SDS011;66281;45.114;20.730;2024-02-26T17:31:56;44.78;;;21.95;;
77168;SDS011;66281;45.114;20.730;2024-02-26T17:41:58;33.70;;;16.93;;
77168;SDS011;66281;45.114;20.730;2024-02-26T17:52:02;28.60;;;14.33;;
77168;SDS011;66281;45.114;20.730;2024-02-26T18:02:04;40.43;;;19.10;;
77168;SDS011;66281;45.114;20.730;2024-02-26T18:12:06;24.75;;;13.38;;
77168;SDS011;66281;45.114;20.730;2024-02-26T18:22:08;22.87;;;12.30;;
77168;SDS011;66281;45.114;20.730;2024-02-26T18:32:09;26.27;;;15.30;;
77168;SDS011;66281;45.114;20.730;2024-02-26T18:42:11;20.58;;;11.18;;
77168;SDS011;66281;45.114;20.730;2024-02-26T18:52:15;18.87;;;9.73;;
77168;SDS011;66281;45.114;20.730;2024-02-26T19:02:16;14.10;;;10.07;;
77168;SDS011;66281;45.114;20.730;2024-02-26T19:12:18;15.00;;;9.68;;
77168;SDS011;66281;45.114;20.730;2024-02-26T19:22:21;17.00;;;10.00;;
77168;SDS011;66281;45.114;20.730;2024-02-26T19:32:23;15.30;;;10.70;;
77168;SDS011;66281;45.114;20.730;2024-02-26T19:42:24;20.87;;;12.20;;
77168;SDS011;66281;45.114;20.730;2024-02-26T19:52:27;58.10;;;29.55;;
77168;SDS011;66281;45.114;20.730;2024-02-26T20:02:28;23.60;;;13.50;;
77168;SDS011;66281;45.114;20.730;2024-02-26T20:12:31;23.63;;;12.93;;
77168;SDS011;66281;45.114;20.730;2024-02-26T20:22:33;20.08;;;11.13;;
77168;SDS011;66281;45.114;20.730;2024-02-26T20:32:35;15.30;;;9.80;;
77168;SDS011;66281;45.114;20.730;2024-02-26T20:42:36;16.37;;;9.57;;
77168;SDS011;66281;45.114;20.730;2024-02-26T20:52:38;19.25;;;10.52;;
77168;SDS011;66281;45.114;20.730;2024-02-26T21:02:39;25.63;;;11.97;;
77168;SDS011;66281;45.114;20.730;2024-02-26T21:12:48;19.80;;;10.47;;
77168;SDS011;66281;45.114;20.730;2024-02-26T21:22:55;20.97;;;10.47;;
77168;SDS011;66281;45.114;20.730;2024-02-26T21:32:57;18.17;;;9.70;;
77168;SDS011;66281;45.114;20.730;2024-02-26T21:42:58;19.63;;;11.40;;
77168;SDS011;66281;45.114;20.730;2024-02-26T21:53:01;23.00;;;11.60;;
77168;SDS011;66281;45.114;20.730;2024-02-26T22:03:03;20.58;;;11.68;;
77168;SDS011;66281;45.114;20.730;2024-02-26T22:13:05;19.50;;;11.63;;
77168;SDS011;66281;45.114;20.730;2024-02-26T22:23:06;18.27;;;10.33;;
77168;SDS011;66281;45.114;20.730;2024-02-26T22:33:08;18.85;;;11.27;;
77168;SDS011;66281;45.114;20.730;2024-02-26T22:43:10;20.73;;;12.37;;
77168;SDS011;66281;45.114;20.730;2024-02-26T22:53:11;24.70;;;14.43;;
77168;SDS011;66281;45.114;20.730;2024-02-26T23:03:13;30.27;;;16.97;;
77168;SDS011;66281;45.114;20.730;2024-02-26T23:13:18;27.55;;;16.23;;
77168;SDS011;66281;45.114;20.730;2024-02-26T23:23:19;26.57;;;15.17;;
77168;SDS011;66281;45.114;20.730;2024-02-26T23:33:20;28.13;;;15.27;;
77168;SDS011;66281;45.114;20.730;2024-02-26T23:43:21;24.20;;;15.73;;
77168;SDS011;66281;45.114;20.730;2024-02-26T23:53:23;27.60;;;16.57;;
